Time;durP1;ratioP1;P1;durP2;ratioP2;P2;SDS_P1;SDS_P2;PMS_P1;PMS_P2;Temp;Humidity;BMP_temperature;BMP_pressure;BME280_temperature;BME280_humidity;BME280_pressure;Samples;Min_cycle;Max_cycle;Signal;HPM_P1;HPM_P2
2022/08/05 00:00:28;;;;;;;10.15;3.35;;;20.30;99.90;;;;;;5036956;28;20056;-85
2022/08/05 00:02:54;;;;;;;9.15;3.33;;;20.30;99.90;;;;;;5034033;28;20053;-85
2022/08/05 00:05:20;;;;;;;10.27;3.67;;;20.30;99.90;;;;;;5019921;28;20026;-85
2022/08/05 00:07:46;;;;;;;9.57;3.40;;;20.30;99.90;;;;;;5014626;28;20053;-85
2022/08/05 00:10:11;;;;;;;8.23;3.70;;;20.20;99.90;;;;;;5016225;28;20026;-85
2022/08/05 00:12:37;;;;;;;11.50;3.75;;;20.20;99.90;;;;;;5028589;28;20074;-85
2022/08/05 00:15:04;;;;;;;8.50;3.50;;;20.20;99.90;;;;;;5016978;28;20022;-85
2022/08/05 00:17:29;;;;;;;10.07;3.30;;;20.30;99.90;;;;;;5034335;28;20053;-85
2022/08/05 00:19:55;;;;;;;9.30;3.28;;;20.20;99.90;;;;;;5022134;28;20034;-85
2022/08/05 00:22:21;;;;;;;7.13;2.92;;;20.20;99.90;;;;;;5019021;28;20026;-85
2022/08/05 00:24:46;;;;;;;9.43;3.35;;;20.10;99.90;;;;;;5017477;28;20375;-85
2022/08/05 00:27:12;;;;;;;7.45;2.80;;;20.00;99.90;;;;;;5019603;28;20036;-85
2022/08/05 00:29:37;;;;;;;10.25;3.05;;;19.90;99.90;;;;;;5021722;28;20689;-85
2022/08/05 00:32:04;;;;;;;10.98;2.90;;;19.90;99.90;;;;;;5021755;28;20054;-85
2022/08/05 00:34:30;;;;;;;8.35;2.92;;;19.80;99.90;;;;;;5014588;28;20041;-85
2022/08/05 00:36:56;;;;;;;8.70;3.28;;;19.70;99.90;;;;;;5017125;28;20034;-85
2022/08/05 00:39:21;;;;;;;10.45;3.80;;;19.60;99.90;;;;;;5014165;28;21559;-85
2022/08/05 00:41:47;;;;;;;11.88;3.58;;;19.60;99.90;;;;;;5018743;28;20030;-85
2022/08/05 00:44:13;;;;;;;11.77;3.30;;;19.50;99.90;;;;;;5017150;28;20029;-85
2022/08/05 00:46:38;;;;;;;11.50;3.78;;;19.40;99.90;;;;;;5019101;28;20679;-85
2022/08/05 00:49:04;;;;;;;10.70;3.60;;;19.40;99.90;;;;;;5017799;28;20050;-86
2022/08/05 00:51:30;;;;;;;8.65;3.70;;;19.30;99.90;;;;;;5017489;28;20052;-86
2022/08/05 00:53:55;;;;;;;8.93;3.40;;;19.20;99.90;;;;;;5017100;28;20080;-86
2022/08/05 00:56:21;;;;;;;10.15;3.40;;;19.20;99.90;;;;;;5016863;28;20034;-86
2022/08/05 00:58:47;;;;;;;8.85;3.42;;;19.10;99.90;;;;;;5011790;28;20025;-86
2022/08/05 01:01:16;;;;;;;13.40;3.75;;;19.00;99.90;;;;;;5013983;28;20026;-85
2022/08/05 01:03:42;;;;;;;11.30;3.90;;;18.90;99.90;;;;;;5014186;28;20050;-86
2022/08/05 01:06:09;;;;;;;8.02;3.53;;;18.80;99.90;;;;;;5015995;28;20026;-86
2022/08/05 01:08:34;;;;;;;9.60;3.38;;;18.70;99.90;;;;;;5015121;28;20002;-86
2022/08/05 01:11:06;;;;;;;7.72;3.35;;;18.60;99.90;;;;;;5010538;28;20049;-85
2022/08/05 01:13:47;;;;;;;9.82;3.40;;;18.60;99.90;;;;;;5025697;28;20085;-86
2022/08/05 01:16:20;;;;;;;10.73;3.40;;;18.50;99.90;;;;;;5011399;28;20050;-86
2022/08/05 01:18:52;;;;;;;7.97;3.65;;;18.40;99.90;;;;;;5009858;28;20068;-86
2022/08/05 01:21:54;;;;;;;8.85;3.58;;;18.30;99.90;;;;;;5009285;28;20041;-86
2022/08/05 01:24:38;;;;;;;8.00;3.60;;;18.30;99.90;;;;;;5009730;28;20010;-88
2022/08/05 01:27:38;;;;;;;9.02;3.70;;;18.30;99.90;;;;;;5014043;28;20508;-88
2022/08/05 01:30:05;;;;;;;8.57;3.20;;;18.40;99.90;;;;;;5002621;28;20211;-88
2022/08/05 01:32:34;;;;;;;11.73;3.55;;;18.40;99.90;;;;;;5007391;28;20453;-88
2022/08/05 01:35:06;;;;;;;9.25;3.60;;;18.50;99.90;;;;;;5009480;28;20058;-88
2022/08/05 01:37:42;;;;;;;8.00;3.13;;;18.50;99.90;;;;;;5017357;28;20030;-88
2022/08/05 01:40:10;;;;;;;10.95;3.45;;;18.50;99.90;;;;;;5013956;28;20097;-88
2022/08/05 01:42:38;;;;;;;8.82;3.20;;;18.50;99.90;;;;;;5010472;28;20374;-88
2022/08/05 01:45:06;;;;;;;8.88;3.17;;;18.50;99.90;;;;;;5003481;28;20022;-88
2022/08/05 01:47:34;;;;;;;11.40;3.28;;;18.50;99.90;;;;;;5013357;28;20029;-88
2022/08/05 01:50:03;;;;;;;8.45;3.45;;;18.50;99.90;;;;;;5009280;28;20474;-88
2022/08/05 01:52:31;;;;;;;9.13;3.28;;;18.60;99.90;;;;;;5006004;28;20034;-86
2022/08/05 01:55:01;;;;;;;7.85;3.10;;;18.70;99.90;;;;;;5009409;28;20057;-86
2022/08/05 01:57:30;;;;;;;8.75;3.10;;;18.70;99.90;;;;;;5006838;28;20077;-86
2022/08/05 02:00:00;;;;;;;9.25;3.10;;;18.80;99.90;;;;;;5006246;28;20394;-86
2022/08/05 02:02:28;;;;;;;10.82;3.22;;;18.80;99.90;;;;;;5015954;28;20030;-86
2022/08/05 02:05:03;;;;;;;7.40;3.30;;;18.80;99.90;;;;;;5011442;28;20046;-86
2022/08/05 02:07:31;;;;;;;9.18;2.90;;;18.90;99.90;;;;;;5014785;28;20401;-85
2022/08/05 02:09:57;;;;;;;9.07;3.30;;;19.00;99.90;;;;;;5012002;28;20026;-85
2022/08/05 02:12:38;;;;;;;8.32;3.00;;;19.10;99.90;;;;;;5008087;28;20049;-86
2022/08/05 02:15:20;;;;;;;7.22;2.85;;;19.20;99.90;;;;;;5006648;28;20022;-85
2022/08/05 02:18:01;;;;;;;12.52;2.80;;;19.40;99.90;;;;;;5015823;28;20061;-86
2022/08/05 02:20:32;;;;;;;7.93;3.10;;;19.50;99.90;;;;;;5016411;28;20034;-86
2022/08/05 02:23:01;;;;;;;9.63;3.47;;;19.60;99.90;;;;;;5009660;28;20418;-86
2022/08/05 02:25:33;;;;;;;11.70;3.38;;;19.60;99.90;;;;;;5015353;28;20030;-86
2022/08/05 02:27:59;;;;;;;9.23;3.17;;;19.60;99.90;;;;;;5017330;28;20034;-86
2022/08/05 02:30:29;;;;;;;13.48;3.20;;;19.60;99.90;;;;;;5013587;28;20503;-86
2022/08/05 02:32:58;;;;;;;11.98;3.30;;;19.70;99.90;;;;;;5007632;28;20083;-88
2022/08/05 02:35:27;;;;;;;8.00;2.88;;;19.70;99.90;;;;;;5009661;28;20033;-88
2022/08/05 02:37:55;;;;;;;8.25;3.50;;;19.60;99.90;;;;;;5007939;28;20168;-88
2022/08/05 02:40:23;;;;;;;9.20;2.90;;;19.70;99.90;;;;;;5003677;28;20010;-88
2022/08/05 02:42:49;;;;;;;7.13;2.80;;;19.70;99.90;;;;;;5012710;28;20014;-88
2022/08/05 02:45:16;;;;;;;7.95;3.17;;;19.70;99.90;;;;;;5010832;28;20057;-88
2022/08/05 02:47:42;;;;;;;11.02;3.45;;;19.80;99.90;;;;;;5015258;28;20526;-88
2022/08/05 02:50:12;;;;;;;11.02;3.53;;;19.90;99.90;;;;;;5012848;28;20034;-88
2022/08/05 02:52:39;;;;;;;8.70;3.55;;;19.90;99.90;;;;;;5010972;28;20041;-88
2022/08/05 02:55:07;;;;;;;10.18;3.95;;;19.90;99.90;;;;;;5003526;28;20035;-88
2022/08/05 02:57:34;;;;;;;9.13;3.25;;;20.00;99.90;;;;;;5014473;28;20022;-88
2022/08/05 03:00:00;;;;;;;10.25;3.78;;;20.00;99.90;;;;;;5004884;28;20521;-88
2022/08/05 03:02:30;;;;;;;9.27;3.60;;;19.90;99.90;;;;;;5007616;28;20037;-88
2022/08/05 03:04:57;;;;;;;9.32;3.90;;;19.90;99.90;;;;;;5013541;28;20399;-88
2022/08/05 03:07:25;;;;;;;9.48;3.53;;;19.70;99.90;;;;;;5012354;28;20061;-88
2022/08/05 03:09:51;;;;;;;9.40;3.90;;;19.70;99.90;;;;;;5015268;28;20026;-88
2022/08/05 03:12:30;;;;;;;10.07;3.65;;;19.80;99.90;;;;;;5011736;28;20023;-88
2022/08/05 03:14:56;;;;;;;11.48;3.83;;;19.50;99.90;;;;;;5004971;28;20019;-88
2022/08/05 03:17:22;;;;;;;10.73;4.18;;;19.40;99.90;;;;;;5007654;28;20508;-88
2022/08/05 03:19:47;;;;;;;11.40;4.47;;;19.40;99.90;;;;;;5004527;28;20018;-88
2022/08/05 03:22:13;;;;;;;8.15;4.05;;;19.30;99.90;;;;;;5025138;28;20030;-88
2022/08/05 03:24:44;;;;;;;10.82;4.45;;;19.10;99.90;;;;;;5004926;28;20033;-88
2022/08/05 03:27:11;;;;;;;13.33;4.60;;;18.90;99.90;;;;;;5006267;28;20727;-88
2022/08/05 03:29:39;;;;;;;13.05;5.00;;;18.80;99.90;;;;;;5015422;28;20496;-88
2022/08/05 03:32:07;;;;;;;9.38;4.55;;;18.70;99.90;;;;;;5009446;28;20034;-88
2022/08/05 03:34:33;;;;;;;11.65;5.43;;;18.70;99.90;;;;;;5011642;28;20044;-88
2022/08/05 03:36:59;;;;;;;12.35;5.82;;;18.50;99.90;;;;;;5012742;28;20022;-89
2022/08/05 03:39:25;;;;;;;13.45;5.22;;;18.50;99.90;;;;;;5009288;28;20675;-87
2022/08/05 03:41:50;;;;;;;13.63;6.05;;;18.50;99.90;;;;;;5009043;28;20072;-88
2022/08/05 03:44:16;;;;;;;12.27;5.88;;;18.30;99.90;;;;;;5006780;28;20050;-88
2022/08/05 03:46:42;;;;;;;12.48;6.00;;;18.10;99.90;;;;;;5012793;28;20057;-87
2022/08/05 03:49:07;;;;;;;13.65;6.25;;;18.00;99.90;;;;;;5007204;28;20533;-87
2022/08/05 03:51:48;;;;;;;15.05;6.68;;;18.10;99.90;;;;;;5005872;28;20437;-88
2022/08/05 03:54:20;;;;;;;16.17;7.78;;;18.00;99.90;;;;;;5005642;28;20080;-87
2022/08/05 03:56:47;;;;;;;21.08;7.72;;;17.80;99.90;;;;;;5000089;28;20062;-86
2022/08/05 03:59:22;;;;;;;15.02;7.13;;;17.80;99.90;;;;;;5029666;28;20056;-87
2022/08/05 04:01:50;;;;;;;14.43;7.38;;;17.80;99.90;;;;;;5012047;28;20032;-87
2022/08/05 04:04:17;;;;;;;21.80;8.05;;;17.70;99.90;;;;;;5008822;28;20054;-87
2022/08/05 04:06:44;;;;;;;16.08;7.70;;;17.70;99.90;;;;;;5008256;28;20023;-87
2022/08/05 04:09:10;;;;;;;18.55;7.97;;;17.70;99.90;;;;;;5010470;28;20096;-87
2022/08/05 04:11:37;;;;;;;16.63;8.85;;;17.60;99.90;;;;;;5005391;28;20029;-87
2022/08/05 04:14:03;;;;;;;18.60;9.20;;;17.60;99.90;;;;;;5005269;28;20034;-87
2022/08/05 04:16:30;;;;;;;20.58;9.02;;;17.50;99.90;;;;;;5012900;28;20038;-87
2022/08/05 04:18:56;;;;;;;21.60;10.13;;;17.40;99.90;;;;;;5013909;28;20022;-87
2022/08/05 04:21:22;;;;;;;18.38;9.30;;;17.50;99.90;;;;;;5009610;28;20033;-88
2022/08/05 04:23:48;;;;;;;22.27;9.40;;;17.40;99.90;;;;;;5012488;28;20024;-87
2022/08/05 04:26:14;;;;;;;21.70;9.93;;;17.30;99.90;;;;;;5007469;28;20022;-88
2022/08/05 04:28:40;;;;;;;20.95;10.00;;;17.40;99.90;;;;;;5008929;28;20499;-88
2022/08/05 04:31:06;;;;;;;23.23;10.25;;;17.50;99.90;;;;;;5004133;28;20116;-88
2022/08/05 04:33:31;;;;;;;19.33;9.57;;;17.60;99.90;;;;;;5011488;28;20060;-87
2022/08/05 04:35:57;;;;;;;20.40;9.40;;;17.60;99.90;;;;;;5009712;28;20112;-88
2022/08/05 04:38:23;;;;;;;21.55;9.68;;;17.70;99.90;;;;;;5010383;28;20648;-88
2022/08/05 04:40:48;;;;;;;17.85;9.65;;;17.70;99.90;;;;;;5013539;28;20109;-88
2022/08/05 04:43:14;;;;;;;19.58;9.93;;;17.70;99.90;;;;;;5007704;28;20030;-88
2022/08/05 04:45:40;;;;;;;21.75;11.00;;;17.70;99.90;;;;;;5009799;28;20018;-89
2022/08/05 04:48:13;;;;;;;24.35;11.90;;;17.70;99.90;;;;;;5010320;28;20022;-88
2022/08/05 04:50:44;;;;;;;21.30;10.10;;;17.70;99.90;;;;;;5016245;28;20100;-89
2022/08/05 04:53:11;;;;;;;23.85;10.23;;;17.70;99.90;;;;;;5002835;28;20516;-89
2022/08/05 04:55:38;;;;;;;19.63;10.30;;;17.70;99.90;;;;;;5006414;28;20052;-89
2022/08/05 04:58:05;;;;;;;26.33;11.30;;;17.70;99.90;;;;;;5005885;28;20398;-88
2022/08/05 05:00:32;;;;;;;21.50;10.75;;;17.70;99.90;;;;;;5017331;28;20022;-91
2022/08/05 05:02:58;;;;;;;20.83;10.45;;;17.70;99.90;;;;;;5001076;28;20049;-92
2022/08/05 05:05:23;;;;;;;22.83;10.60;;;17.80;99.90;;;;;;5012338;28;20034;-92
2022/08/05 05:07:49;;;;;;;26.13;10.73;;;17.80;99.90;;;;;;5017904;28;20019;-92
2022/08/05 05:10:15;;;;;;;22.35;10.70;;;17.80;99.90;;;;;;5014559;28;20070;-92
2022/08/05 05:12:40;;;;;;;20.80;11.35;;;17.80;99.90;;;;;;5031742;28;20030;-91
2022/08/05 05:15:06;;;;;;;21.77;10.10;;;17.80;99.90;;;;;;5019690;28;20088;-92
2022/08/05 05:17:39;;;;;;;20.90;9.50;;;18.00;99.90;;;;;;5025444;28;20080;-91
2022/08/05 05:20:06;;;;;;;21.17;10.25;;;18.10;99.90;;;;;;5009750;28;20034;-91
2022/08/05 05:22:33;;;;;;;20.77;10.63;;;18.00;99.90;;;;;;5014068;28;20022;-92
2022/08/05 05:24:58;;;;;;;17.52;10.10;;;18.00;99.90;;;;;;5002231;28;20033;-91
2022/08/05 05:27:24;;;;;;;27.27;11.52;;;18.00;99.90;;;;;;5011214;28;20026;-92
2022/08/05 05:29:50;;;;;;;21.95;10.77;;;18.00;99.90;;;;;;5009963;28;20031;-92
2022/08/05 05:32:15;;;;;;;25.10;12.95;;;18.00;99.90;;;;;;5010997;28;20022;-90
2022/08/05 05:34:41;;;;;;;25.17;12.52;;;18.00;99.90;;;;;;5010173;28;20033;-93
2022/08/05 05:37:07;;;;;;;28.65;12.95;;;17.90;99.90;;;;;;5006128;28;20032;-93
2022/08/05 05:39:32;;;;;;;26.88;14.20;;;17.90;99.90;;;;;;5007204;28;20211;-93
2022/08/05 05:41:58;;;;;;;27.20;13.38;;;17.90;99.90;;;;;;5009738;28;20551;-90
2022/08/05 05:44:24;;;;;;;29.35;13.95;;;18.00;99.90;;;;;;5014298;28;20117;-91
2022/08/05 05:46:49;;;;;;;31.00;14.35;;;18.00;99.90;;;;;;5012537;28;20466;-91
2022/08/05 05:49:15;;;;;;;34.53;16.98;;;18.00;99.90;;;;;;5014670;28;20026;-91
2022/08/05 05:51:40;;;;;;;30.25;17.08;;;18.00;99.90;;;;;;5009473;28;20045;-91
2022/08/05 05:54:06;;;;;;;31.40;16.80;;;18.00;99.90;;;;;;5002035;28;20129;-91
2022/08/05 05:56:32;;;;;;;35.80;18.50;;;18.00;99.90;;;;;;5010220;28;20029;-90
2022/08/05 05:58:57;;;;;;;38.72;20.35;;;18.00;99.90;;;;;;5008979;28;20465;-90
2022/08/05 06:01:23;;;;;;;43.35;20.88;;;18.00;99.90;;;;;;5009627;28;20109;-89
2022/08/05 06:03:48;;;;;;;44.90;20.48;;;17.90;99.90;;;;;;5004885;28;20074;-88
2022/08/05 06:06:14;;;;;;;43.30;21.30;;;17.90;99.90;;;;;;5006627;28;20030;-88
2022/08/05 06:08:39;;;;;;;38.15;19.95;;;18.00;99.90;;;;;;5005147;28;20659;-87
2022/08/05 06:11:05;;;;;;;42.45;21.35;;;18.00;99.90;;;;;;5006972;28;20044;-86
2022/08/05 06:13:31;;;;;;;38.83;19.20;;;18.10;99.90;;;;;;5000924;28;20076;-87
2022/08/05 06:15:56;;;;;;;41.72;19.75;;;18.10;99.90;;;;;;5023443;28;20429;-87
2022/08/05 06:18:22;;;;;;;41.05;18.92;;;18.10;99.90;;;;;;5011408;28;20079;-88
2022/08/05 06:20:50;;;;;;;40.08;18.30;;;18.20;99.90;;;;;;5013391;28;20048;-86
2022/08/05 06:23:15;;;;;;;47.33;20.88;;;18.10;99.90;;;;;;5009957;28;20030;-86
2022/08/05 06:25:41;;;;;;;51.13;21.77;;;18.10;99.90;;;;;;5016650;28;20057;-87
2022/08/05 06:28:07;;;;;;;57.35;24.67;;;18.10;99.90;;;;;;5009361;28;20705;-87
2022/08/05 06:30:32;;;;;;;59.65;24.00;;;18.10;99.90;;;;;;5020726;28;20129;-87
2022/08/05 06:32:58;;;;;;;64.28;26.73;;;18.10;99.90;;;;;;5006520;28;20038;-87
2022/08/05 06:35:23;;;;;;;56.75;25.63;;;18.20;99.90;;;;;;5016633;28;20022;-86
2022/08/05 06:37:49;;;;;;;57.63;24.80;;;18.10;99.90;;;;;;5004151;28;20540;-87
2022/08/05 06:40:15;;;;;;;67.88;27.63;;;18.10;99.90;;;;;;5006753;28;20034;-87
2022/08/05 06:42:41;;;;;;;63.72;27.33;;;18.10;99.90;;;;;;5007831;28;20069;-87
2022/08/05 06:45:07;;;;;;;63.28;27.60;;;18.20;99.90;;;;;;5005424;28;20014;-87
2022/08/05 06:47:33;;;;;;;63.33;27.35;;;18.20;99.90;;;;;;5006287;28;20032;-87
2022/08/05 06:49:58;;;;;;;63.33;27.50;;;18.30;99.90;;;;;;5012086;28;20489;-87
2022/08/05 06:52:24;;;;;;;56.45;25.05;;;18.20;99.90;;;;;;5011827;28;20493;-87
2022/08/05 06:54:50;;;;;;;56.20;25.45;;;18.10;99.90;;;;;;5007658;28;20026;-87
2022/08/05 06:57:17;;;;;;;50.08;24.27;;;18.30;99.90;;;;;;5009714;28;20027;-87
2022/08/05 06:59:43;;;;;;;49.28;23.25;;;18.20;99.90;;;;;;5005773;28;20030;-87
2022/08/05 07:02:09;;;;;;;39.85;21.05;;;18.20;99.90;;;;;;5005890;28;20022;-87
2022/08/05 07:04:35;;;;;;;43.38;21.85;;;18.20;99.90;;;;;;5011817;28;20045;-87
2022/08/05 07:07:00;;;;;;;44.88;20.88;;;18.20;99.90;;;;;;5006030;28;20058;-87
2022/08/05 07:09:26;;;;;;;46.75;19.73;;;18.20;99.90;;;;;;5007034;28;20053;-88
2022/08/05 07:11:54;;;;;;;38.08;20.70;;;18.20;99.90;;;;;;5009253;28;20599;-87
2022/08/05 07:17:04;;;;;;;41.75;20.88;;;18.10;99.90;;;;;;5010761;28;20087;-87
2022/08/05 07:19:30;;;;;;;40.15;20.83;;;18.10;99.90;;;;;;5009469;28;20136;-87
2022/08/05 07:21:56;;;;;;;37.92;19.52;;;18.10;99.90;;;;;;5011915;28;20030;-87
2022/08/05 07:24:22;;;;;;;33.63;18.98;;;18.20;99.90;;;;;;5024094;28;20034;-87
2022/08/05 07:26:48;;;;;;;33.63;18.23;;;18.10;99.90;;;;;;5015808;28;20018;-87
2022/08/05 07:29:14;;;;;;;37.20;19.02;;;18.00;99.90;;;;;;5010883;28;20029;-87
2022/08/05 07:31:41;;;;;;;34.53;18.65;;;17.90;99.90;;;;;;5011656;28;20014;-87
2022/08/05 07:34:07;;;;;;;29.20;15.90;;;17.80;99.90;;;;;;5015506;28;20056;-87
2022/08/05 07:36:32;;;;;;;24.10;14.23;;;17.80;99.90;;;;;;5010927;28;20706;-87
2022/08/05 07:39:00;;;;;;;27.13;14.18;;;17.70;99.90;;;;;;5016348;28;20025;-87
2022/08/05 07:41:26;;;;;;;25.27;13.48;;;17.50;99.90;;;;;;5013714;28;20029;-87
2022/08/05 07:43:53;;;;;;;26.75;13.15;;;17.40;99.90;;;;;;5013413;28;20105;-87
2022/08/05 07:46:18;;;;;;;29.27;15.20;;;17.30;99.90;;;;;;5007721;28;20022;-87
2022/08/05 07:48:44;;;;;;;26.83;14.43;;;17.30;99.90;;;;;;5009242;28;20088;-87
2022/08/05 07:51:10;;;;;;;30.20;15.70;;;17.30;99.90;;;;;;5013023;28;20034;-87
2022/08/05 07:53:36;;;;;;;28.23;15.23;;;17.30;99.90;;;;;;5012799;28;20032;-87
2022/08/05 07:56:03;;;;;;;29.70;16.02;;;17.40;99.90;;;;;;5013012;28;20040;-87
2022/08/05 07:58:29;;;;;;;29.67;15.23;;;17.40;99.90;;;;;;5016486;28;20430;-87
2022/08/05 08:00:54;;;;;;;31.23;15.38;;;17.20;99.90;;;;;;5015300;28;20068;-87
2022/08/05 08:03:20;;;;;;;30.80;17.17;;;17.20;99.90;;;;;;5009681;28;20030;-87
2022/08/05 08:05:46;;;;;;;33.88;19.02;;;17.20;99.90;;;;;;5013591;28;20409;-87
2022/08/05 08:08:12;;;;;;;35.55;18.27;;;17.10;99.90;;;;;;5011844;28;21037;-87
2022/08/05 08:10:38;;;;;;;34.92;18.77;;;17.10;99.90;;;;;;5013211;28;20032;-87
2022/08/05 08:13:05;;;;;;;34.00;19.52;;;17.10;99.90;;;;;;5012265;28;20084;-87
2022/08/05 08:15:31;;;;;;;32.92;18.42;;;17.10;99.90;;;;;;5009499;28;20038;-87
2022/08/05 08:17:56;;;;;;;33.40;18.90;;;17.00;99.90;;;;;;5010678;28;20455;-87
2022/08/05 08:20:24;;;;;;;38.97;19.60;;;17.00;99.90;;;;;;5010642;28;20514;-87
2022/08/05 08:22:54;;;;;;;34.80;18.33;;;16.90;99.90;;;;;;5008822;28;20045;-87
2022/08/05 08:25:20;;;;;;;36.08;17.90;;;16.90;99.90;;;;;;5010785;28;20040;-87
2022/08/05 08:27:46;;;;;;;32.03;16.85;;;17.00;99.90;;;;;;5012645;28;20524;-88
2022/08/05 08:30:12;;;;;;;29.25;15.45;;;17.10;99.90;;;;;;5010900;28;20030;-87
2022/08/05 08:32:38;;;;;;;27.05;14.43;;;17.00;99.90;;;;;;5010357;28;20050;-87
2022/08/05 08:35:05;;;;;;;27.02;13.95;;;17.00;99.90;;;;;;5015552;28;20501;-87
2022/08/05 08:37:30;;;;;;;23.75;13.07;;;17.00;99.90;;;;;;5012089;28;20033;-88
2022/08/05 08:39:56;;;;;;;29.02;13.57;;;17.00;99.90;;;;;;5009214;28;20041;-88
2022/08/05 08:42:22;;;;;;;25.35;12.75;;;17.00;99.90;;;;;;5002661;28;20482;-87
2022/08/05 08:44:49;;;;;;;24.20;11.68;;;17.20;99.90;;;;;;5006297;28;20022;-87
2022/08/05 08:47:15;;;;;;;19.95;10.05;;;17.10;99.90;;;;;;5008613;28;20021;-88
2022/08/05 08:49:45;;;;;;;23.75;10.07;;;17.00;99.90;;;;;;5005812;28;20018;-87
2022/08/05 08:52:13;;;;;;;24.55;10.18;;;17.10;99.90;;;;;;5007174;28;20030;-87
2022/08/05 08:54:39;;;;;;;18.13;9.90;;;17.20;99.90;;;;;;5003588;28;20482;-88
2022/08/05 08:57:06;;;;;;;20.17;10.40;;;17.20;99.90;;;;;;5010793;28;20034;-88
2022/08/05 08:59:32;;;;;;;21.58;10.38;;;17.20;99.90;;;;;;5013068;28;20030;-87
2022/08/05 09:02:00;;;;;;;20.90;10.15;;;17.10;99.90;;;;;;5008646;28;20030;-88
2022/08/05 09:04:27;;;;;;;18.17;9.63;;;17.20;99.90;;;;;;5005878;28;20046;-88
2022/08/05 09:06:52;;;;;;;18.75;9.38;;;17.10;99.90;;;;;;5009836;28;20057;-87
2022/08/05 09:09:18;;;;;;;17.08;9.32;;;17.10;99.90;;;;;;5022862;28;20128;-87
2022/08/05 09:11:44;;;;;;;22.98;10.80;;;17.20;99.90;;;;;;5008512;28;20034;-87
2022/08/05 09:14:11;;;;;;;20.60;11.02;;;17.40;99.90;;;;;;5010155;28;20033;-87
2022/08/05 09:16:38;;;;;;;22.55;9.80;;;17.30;99.90;;;;;;5011593;28;20073;-87
2022/08/05 09:19:03;;;;;;;17.88;9.52;;;17.30;99.90;;;;;;5008763;28;20026;-87
2022/08/05 09:21:29;;;;;;;18.38;8.60;;;17.30;99.90;;;;;;5008117;28;20652;-87
2022/08/05 09:24:11;;;;;;;19.85;9.77;;;17.30;99.90;;;;;;5009375;28;20481;-88
2022/08/05 09:26:38;;;;;;;18.73;9.98;;;17.30;99.90;;;;;;5021503;28;20017;-87
2022/08/05 09:29:06;;;;;;;20.17;9.23;;;17.10;99.90;;;;;;5010548;28;20014;-87
2022/08/05 09:31:33;;;;;;;15.63;8.65;;;17.10;99.90;;;;;;5010990;28;20041;-87
2022/08/05 09:34:02;;;;;;;15.50;7.80;;;17.10;99.90;;;;;;5015109;28;20026;-86
2022/08/05 09:36:44;;;;;;;16.83;8.07;;;17.10;99.90;;;;;;5011834;28;20038;-86
2022/08/05 09:39:12;;;;;;;16.17;7.50;;;17.10;99.90;;;;;;5010657;28;20029;-86
2022/08/05 09:41:56;;;;;;;17.98;7.50;;;17.10;99.90;;;;;;5009288;28;20405;-86
2022/08/05 09:44:34;;;;;;;16.88;6.82;;;17.30;99.90;;;;;;5009944;28;20030;-87
2022/08/05 09:47:07;;;;;;;13.52;6.50;;;17.40;99.90;;;;;;5013953;28;20018;-86
2022/08/05 09:49:32;;;;;;;14.82;6.32;;;17.40;99.90;;;;;;5007975;28;20125;-86
2022/08/05 09:51:58;;;;;;;14.93;6.53;;;17.50;99.90;;;;;;5025669;28;20080;-86
2022/08/05 09:54:30;;;;;;;15.02;6.97;;;17.40;99.90;;;;;;5006881;28;20030;-86
2022/08/05 09:56:56;;;;;;;16.23;8.20;;;17.70;99.90;;;;;;5008447;28;20102;-86
2022/08/05 09:59:23;;;;;;;25.75;7.10;;;17.80;99.90;;;;;;5010102;28;20057;-86
2022/08/05 10:01:51;;;;;;;16.25;7.03;;;18.10;99.90;;;;;;5008988;28;20022;-87
2022/08/05 10:04:17;;;;;;;16.90;9.98;;;18.30;99.90;;;;;;5012602;28;20045;-86
2022/08/05 10:06:54;;;;;;;16.40;8.75;;;18.30;99.90;;;;;;5009560;28;20026;-87
2022/08/05 10:09:21;;;;;;;20.27;9.93;;;18.30;99.90;;;;;;5013209;28;20030;-87
2022/08/05 10:11:47;;;;;;;19.85;10.10;;;18.40;99.90;;;;;;5009810;28;20116;-87
2022/08/05 10:14:23;;;;;;;18.65;9.80;;;18.20;99.90;;;;;;5000995;28;20025;-87
2022/08/05 10:16:49;;;;;;;19.52;9.38;;;18.20;99.90;;;;;;5009608;28;20033;-87
2022/08/05 10:19:15;;;;;;;18.27;9.07;;;18.10;99.90;;;;;;5009651;28;20165;-86
2022/08/05 10:21:41;;;;;;;15.70;7.93;;;17.90;99.90;;;;;;5018382;28;20057;-87
2022/08/05 10:24:14;;;;;;;15.10;7.38;;;17.80;99.90;;;;;;5013641;28;20025;-86
2022/08/05 10:26:42;;;;;;;16.10;7.10;;;17.70;99.90;;;;;;5009136;28;20038;-87
2022/08/05 10:29:08;;;;;;;15.48;6.55;;;17.70;99.90;;;;;;5014565;28;20017;-87
2022/08/05 10:31:36;;;;;;;12.88;6.70;;;17.70;99.90;;;;;;5013012;28;20026;-87
2022/08/05 10:34:02;;;;;;;14.27;6.28;;;17.70;99.90;;;;;;5012283;28;20370;-87
2022/08/05 10:36:28;;;;;;;12.77;7.00;;;17.80;99.90;;;;;;5011293;28;20089;-87
2022/08/05 10:39:00;;;;;;;16.00;7.40;;;17.70;99.90;;;;;;5013425;28;20026;-86
2022/08/05 10:41:33;;;;;;;16.98;8.00;;;17.60;99.90;;;;;;5010379;28;20029;-86
2022/08/05 10:44:04;;;;;;;17.70;7.90;;;17.60;99.90;;;;;;5005486;28;20026;-86
2022/08/05 10:47:10;;;;;;;15.82;6.75;;;17.60;99.90;;;;;;5011437;28;20077;-87
2022/08/05 10:50:01;;;;;;;14.88;7.05;;;17.70;99.90;;;;;;4975247;28;20042;-86
2022/08/05 10:52:55;;;;;;;15.88;6.75;;;17.90;99.90;;;;;;5010818;28;20080;-87
2022/08/05 10:55:22;;;;;;;13.80;6.80;;;18.10;99.90;;;;;;5008116;28;20322;-87
2022/08/05 10:58:04;;;;;;;17.05;7.15;;;18.10;99.90;;;;;;5011479;28;20034;-87
2022/08/05 11:00:30;;;;;;;14.65;6.70;;;18.10;99.90;;;;;;5015148;28;20029;-87
2022/08/05 11:03:05;;;;;;;12.55;7.05;;;18.00;99.90;;;;;;5014512;28;20030;-87
2022/08/05 11:05:32;;;;;;;13.98;7.38;;;17.80;99.90;;;;;;5006559;28;20062;-86
2022/08/05 11:08:01;;;;;;;15.80;6.60;;;17.60;99.90;;;;;;5019123;28;20386;-86
2022/08/05 11:10:27;;;;;;;17.73;7.20;;;17.80;99.90;;;;;;5014123;28;20113;-86
2022/08/05 11:12:54;;;;;;;16.60;7.45;;;17.80;99.90;;;;;;5012872;28;20116;-86
2022/08/05 11:15:31;;;;;;;15.07;7.78;;;18.00;99.90;;;;;;5015950;28;20030;-86
2022/08/05 11:18:27;;;;;;;13.75;7.43;;;18.10;99.90;;;;;;5028368;28;20054;-86
2022/08/05 11:20:53;;;;;;;14.18;7.07;;;18.60;99.90;;;;;;5022654;28;20039;-86
2022/08/05 11:23:40;;;;;;;14.43;7.38;;;19.10;99.90;;;;;;5015668;28;20121;-86
2022/08/05 11:26:20;;;;;;;12.70;6.38;;;19.30;99.90;;;;;;5010983;28;20022;-86
2022/08/05 11:28:50;;;;;;;11.23;4.45;;;19.50;99.90;;;;;;5013192;28;20033;-85
2022/08/05 11:31:16;;;;;;;11.38;4.72;;;19.10;99.90;;;;;;5012774;28;20068;-86
2022/08/05 11:33:44;;;;;;;11.50;4.65;;;19.00;99.90;;;;;;5012708;28;20034;-86
2022/08/05 11:36:11;;;;;;;11.75;4.13;;;19.10;99.90;;;;;;5013274;28;20031;-87
2022/08/05 11:38:40;;;;;;;9.88;4.20;;;19.40;99.90;;;;;;5013083;28;20041;-87
2022/08/05 11:41:19;;;;;;;8.98;4.13;;;19.90;99.90;;;;;;5006746;28;20102;-86
2022/08/05 11:43:59;;;;;;;7.85;3.65;;;20.40;99.90;;;;;;5023092;28;20057;-86
2022/08/05 11:46:41;;;;;;;9.55;3.60;;;20.80;99.90;;;;;;5012017;28;20030;-87
2022/08/05 11:49:12;;;;;;;7.32;3.33;;;21.80;99.90;;;;;;5002922;28;21908;-88
2022/08/05 11:51:43;;;;;;;9.90;3.35;;;21.20;99.90;;;;;;5002886;28;20141;-87
2022/08/05 11:54:11;;;;;;;8.48;3.30;;;22.00;99.90;;;;;;5030202;28;20022;-87
2022/08/05 11:56:42;;;;;;;6.32;2.70;;;23.40;99.90;;;;;;5003353;28;20646;-88
2022/08/05 11:59:15;;;;;;;6.88;2.53;;;26.00;99.90;;;;;;5013874;28;20010;-87
2022/08/05 12:02:14;;;;;;;7.95;2.53;;;25.10;99.90;;;;;;5011540;28;20021;-87
2022/08/05 12:04:42;;;;;;;6.85;2.63;;;26.10;99.90;;;;;;4956669;28;20039;-87
2022/08/05 12:07:10;;;;;;;8.43;2.67;;;25.50;99.90;;;;;;5008327;28;20022;-87
2022/08/05 12:09:41;;;;;;;8.70;2.53;;;26.10;99.90;;;;;;4989802;28;20038;-87
2022/08/05 12:12:07;;;;;;;5.80;2.15;;;28.20;97.30;;;;;;4988195;28;20039;-88
2022/08/05 12:14:41;;;;;;;7.32;2.40;;;29.60;94.70;;;;;;4999923;28;20418;-87
2022/08/05 12:17:08;;;;;;;8.77;3.00;;;27.20;97.80;;;;;;4999662;28;20035;-87
2022/08/05 12:19:50;;;;;;;7.45;2.97;;;26.50;97.70;;;;;;5005354;28;20046;-87
2022/08/05 12:22:19;;;;;;;7.47;2.80;;;25.90;99.00;;;;;;4984048;28;20054;-86
2022/08/05 12:24:47;;;;;;;7.35;2.85;;;24.10;99.90;;;;;;5006456;28;20019;-86
2022/08/05 12:27:21;;;;;;;7.63;2.60;;;24.50;99.90;;;;;;5005224;28;20030;-87
2022/08/05 12:30:07;;;;;;;8.30;3.30;;;26.70;99.00;;;;;;4992957;28;20086;-86
2022/08/05 12:32:34;;;;;;;11.18;3.25;;;26.90;99.50;;;;;;4989692;28;20030;-87
2022/08/05 12:35:05;;;;;;;6.35;3.25;;;29.20;94.00;;;;;;4988114;28;20200;-87
2022/08/05 12:37:31;;;;;;;10.70;4.30;;;28.20;93.30;;;;;;5000761;28;20490;-88
2022/08/05 12:39:58;;;;;;;9.07;4.10;;;28.60;92.10;;;;;;4992772;28;20038;-87
2022/08/05 12:42:28;;;;;;;9.45;4.30;;;28.00;94.10;;;;;;4991372;28;20597;-87
2022/08/05 12:45:04;;;;;;;10.25;5.00;;;27.40;93.10;;;;;;4995165;28;20633;-87